createdAt,value
2023-04-15T00:01:34.054Z,4.40
2023-04-15T00:06:39.689Z,6.72
2023-04-15T00:11:44.254Z,4.63
2023-04-15T00:16:47.490Z,7.47
2023-04-15T00:21:50.766Z,7.50
2023-04-15T00:26:55.506Z,6.47
2023-04-15T00:31:59.190Z,6.05
2023-04-15T00:37:02.553Z,5.03
2023-04-15T00:42:07.370Z,5.00
2023-04-15T00:47:11.316Z,6.15
2023-04-15T00:52:14.503Z,4.22
2023-04-15T00:57:19.186Z,6.07
2023-04-15T01:02:23.225Z,5.07
2023-04-15T01:07:26.550Z,5.47
2023-04-15T01:12:34.422Z,5.93
2023-04-15T01:17:38.329Z,3.90
2023-04-15T01:22:42.186Z,5.40
2023-04-15T01:27:47.144Z,4.75
2023-04-15T01:32:50.568Z,5.13
2023-04-15T01:38:13.751Z,4.33
2023-04-15T01:43:18.240Z,4.03
2023-04-15T01:48:21.656Z,4.18
2023-04-15T01:53:24.907Z,4.60
2023-04-15T01:58:29.610Z,3.15
2023-04-15T02:03:33.118Z,3.35
2023-04-15T02:08:36.328Z,5.30
2023-04-15T02:13:40.922Z,4.18
2023-04-15T02:18:44.042Z,2.25
2023-04-15T02:23:48.541Z,7.57
2023-04-15T02:28:53.225Z,4.45
2023-04-15T02:33:56.295Z,5.75
2023-04-15T02:39:00.124Z,5.25
2023-04-15T02:44:04.971Z,8.88
2023-04-15T02:49:08.730Z,3.35
2023-04-15T02:54:11.989Z,4.53
2023-04-15T02:59:16.616Z,6.82
2023-04-15T03:04:20.013Z,4.88
2023-04-15T03:09:23.356Z,5.72
2023-04-15T03:14:27.884Z,5.78
2023-04-15T03:19:31.954Z,3.92
2023-04-15T03:24:35.289Z,5.97
2023-04-15T03:29:39.970Z,3.88
2023-04-15T03:34:43.511Z,5.68
2023-04-15T03:39:46.940Z,5.78
2023-04-15T03:44:51.547Z,4.38
2023-04-15T03:49:54.787Z,7.65
2023-04-15T03:54:58.260Z,4.03
2023-04-15T04:00:02.947Z,3.85
2023-04-15T04:05:06.668Z,6.32
2023-04-15T04:10:10.580Z,6.75
2023-04-15T04:15:15.454Z,8.55
2023-04-15T04:20:18.785Z,8.07
2023-04-15T04:25:22.124Z,6.03
2023-04-15T04:30:26.779Z,4.47
2023-04-15T04:35:30.177Z,7.50
2023-04-15T04:40:33.487Z,4.80
2023-04-15T04:45:38.140Z,6.57
2023-04-15T04:50:41.489Z,9.15
2023-04-15T04:55:44.852Z,8.15
2023-04-15T05:00:49.568Z,6.10
2023-04-15T05:05:53.027Z,9.70
2023-04-15T05:10:56.452Z,6.57
2023-04-15T05:16:01.215Z,5.35
2023-04-15T05:21:04.476Z,6.85
2023-04-15T05:26:08.025Z,6.88
2023-04-15T05:31:12.735Z,10.45
2023-04-15T05:36:15.912Z,5.32
2023-04-15T05:41:19.811Z,7.53
2023-04-15T05:46:24.839Z,3.72
2023-04-15T05:51:28.050Z,6.30
2023-04-15T05:56:31.972Z,11.77
2023-04-15T06:01:36.865Z,6.80
2023-04-15T06:06:40.721Z,6.32
2023-04-15T06:11:44.038Z,4.63
2023-04-15T06:16:48.738Z,6.20
2023-04-15T06:21:52.099Z,6.25
2023-04-15T06:26:55.405Z,6.95
2023-04-15T06:32:00.382Z,6.88
2023-04-15T06:37:05.749Z,6.05
2023-04-15T06:42:10.100Z,6.93
2023-04-15T06:47:15.523Z,8.75
2023-04-15T06:52:19.151Z,9.85
2023-04-15T06:57:22.313Z,6.05
2023-04-15T07:02:27.523Z,5.50
2023-04-15T07:07:30.880Z,6.25
2023-04-15T07:12:34.160Z,8.77
2023-04-15T07:17:38.843Z,6.68
2023-04-15T07:22:42.518Z,5.50
2023-04-15T07:27:45.876Z,5.28
2023-04-15T07:32:50.948Z,5.53
2023-04-15T07:37:54.288Z,7.18
2023-04-15T07:42:58.544Z,5.68
2023-04-15T07:48:03.501Z,6.22
2023-04-15T07:53:07.414Z,8.63
2023-04-15T07:58:10.682Z,7.28
2023-04-15T08:03:15.824Z,4.50
2023-04-15T08:08:19.225Z,14.75
2023-04-15T08:13:22.465Z,6.20
2023-04-15T08:18:27.091Z,16.55
2023-04-15T08:23:30.322Z,6.78
2023-04-15T08:28:33.677Z,7.28
2023-04-15T08:33:38.306Z,8.30
2023-04-15T08:38:41.560Z,6.95
2023-04-15T08:43:50.721Z,6.13
2023-04-15T08:48:59.139Z,4.32
2023-04-15T08:54:03.391Z,4.40
2023-04-15T08:59:07.207Z,8.63
2023-04-15T09:04:12.961Z,8.45
2023-04-15T09:09:16.498Z,5.75
2023-04-15T09:14:19.768Z,7.15
2023-04-15T09:19:25.209Z,6.03
2023-04-15T09:24:38.919Z,6.80
2023-04-15T09:29:43.190Z,11.20
2023-04-15T09:34:48.361Z,6.40
2023-04-15T09:39:53.865Z,5.18
2023-04-15T09:44:57.011Z,5.57
2023-04-15T09:50:02.513Z,6.13
2023-04-15T09:55:08.375Z,5.20
2023-04-15T10:00:14.167Z,7.43
2023-04-15T10:05:19.631Z,3.78
2023-04-15T10:10:23.253Z,5.50
2023-04-15T10:15:28.273Z,4.80
2023-04-15T10:20:33.149Z,5.35
2023-04-15T10:25:36.642Z,8.15
2023-04-15T10:30:40.588Z,7.18
2023-04-15T10:35:46.503Z,5.85
2023-04-15T10:40:51.791Z,8.27
2023-04-15T10:45:55.153Z,5.53
2023-04-15T10:51:02.282Z,7.53
2023-04-15T10:56:06.716Z,6.43
2023-04-15T11:01:10.114Z,6.35
2023-04-15T11:06:15.073Z,7.35
2023-04-15T11:11:18.402Z,8.52
2023-04-15T11:16:21.821Z,14.82
2023-04-15T11:21:28.317Z,7.95
2023-04-15T11:26:32.324Z,6.18
2023-04-15T11:31:35.978Z,6.60
2023-04-15T11:36:40.516Z,10.10
2023-04-15T11:41:44.343Z,9.85
2023-04-15T11:46:47.548Z,4.05
2023-04-15T11:51:52.274Z,5.15
2023-04-15T11:56:56.733Z,4.18
2023-04-15T12:02:00.504Z,9.32
2023-04-15T12:07:07.805Z,9.18
2023-04-15T12:12:12.508Z,5.93
2023-04-15T12:17:16.780Z,6.03
2023-04-15T12:22:22.368Z,6.38
2023-04-15T12:27:29.785Z,7.30
2023-04-15T12:32:37.266Z,6.13
2023-04-15T12:37:42.078Z,10.35
2023-04-15T12:42:45.387Z,8.68
2023-04-15T12:47:48.637Z,6.38
2023-04-15T12:52:53.399Z,7.25
2023-04-15T12:57:56.906Z,10.02
2023-04-15T13:03:00.599Z,10.43
2023-04-15T13:08:05.573Z,9.02
2023-04-15T13:13:08.745Z,6.78
2023-04-15T13:18:12.021Z,7.93
2023-04-15T13:23:16.714Z,5.97
2023-04-15T13:28:20.080Z,6.97
2023-04-15T13:33:23.405Z,16.75
2023-04-15T13:38:28.272Z,22.85
2023-04-15T13:43:33.832Z,9.55
2023-04-15T13:48:37.238Z,18.45
2023-04-15T13:53:41.795Z,7.15
2023-04-15T13:58:45.149Z,7.40
2023-04-15T14:03:48.645Z,12.63
2023-04-15T14:08:53.611Z,12.30
2023-04-15T14:13:56.777Z,14.32
2023-04-15T14:19:00.552Z,7.07
2023-04-15T14:24:05.606Z,10.55
2023-04-15T14:29:09.272Z,6.75
2023-04-15T14:34:12.713Z,7.35
2023-04-15T14:39:17.713Z,13.38
2023-04-15T14:44:21.124Z,11.18
2023-04-15T14:49:24.683Z,12.32
2023-04-15T14:54:29.531Z,10.55
2023-04-15T14:59:33.364Z,9.73
2023-04-15T15:04:40.830Z,15.82
2023-04-15T15:09:45.782Z,11.27
2023-04-15T15:14:49.131Z,9.77
2023-04-15T15:19:52.511Z,11.98
2023-04-15T15:24:59.391Z,10.10
2023-04-15T15:30:02.948Z,13.18
2023-04-15T15:35:07.711Z,9.77
2023-04-15T15:40:13.718Z,11.80
2023-04-15T15:45:17.514Z,8.85
2023-04-15T15:50:22.167Z,12.13
2023-04-15T15:55:27.380Z,8.18
2023-04-15T16:00:30.765Z,9.48
2023-04-15T16:05:34.275Z,13.95
2023-04-15T16:10:39.368Z,9.02
2023-04-15T16:15:43.829Z,14.52
2023-04-15T16:20:47.240Z,8.32
2023-04-15T16:25:52.185Z,10.88
2023-04-15T16:30:56.376Z,16.55
2023-04-15T16:35:59.725Z,13.50
2023-04-15T16:41:04.695Z,19.60
2023-04-15T16:46:08.058Z,20.67
2023-04-15T16:51:11.519Z,26.40
2023-04-15T16:56:16.897Z,28.98
2023-04-15T17:01:21.514Z,15.55
2023-04-15T17:06:24.924Z,22.88
2023-04-15T17:11:31.467Z,88.55
2023-04-15T17:16:34.751Z,91.47
2023-04-15T17:21:38.411Z,106.25
2023-04-15T17:26:44.230Z,99.75
2023-04-15T17:31:49.965Z,79.82
2023-04-15T17:42:37.757Z,65.25
2023-04-15T17:48:03.576Z,67.68
2023-04-15T17:53:27.125Z,62.53
2023-04-15T17:58:53.216Z,51.10
2023-04-15T18:04:16.674Z,54.92
2023-04-15T18:15:05.907Z,69.30
2023-04-15T18:20:29.282Z,53.63
2023-04-15T18:25:34.312Z,55.05
2023-04-15T18:30:39.062Z,51.80
2023-04-15T18:35:43.110Z,98.78
2023-04-15T18:40:46.510Z,104.63
2023-04-15T18:45:54.745Z,92.18
2023-04-15T18:50:58.619Z,135.50
2023-04-15T18:56:03.088Z,166.48
2023-04-15T19:01:10.064Z,170.57
2023-04-15T19:06:17.259Z,417.25
2023-04-15T19:11:21.875Z,266.38
2023-04-15T19:16:26.648Z,180.43
2023-04-15T19:21:33.309Z,150.45
2023-04-15T19:26:38.071Z,136.48
2023-04-15T19:31:43.114Z,150.75
2023-04-15T19:36:46.670Z,180.80
2023-04-15T19:41:50.189Z,129.70
2023-04-15T19:46:55.644Z,103.35
2023-04-15T19:51:59.228Z,63.33
2023-04-15T19:57:02.724Z,61.05
2023-04-15T20:02:08.477Z,34.20
2023-04-15T20:07:11.873Z,34.47
2023-04-15T20:12:50.362Z,27.63
2023-04-15T20:17:39.839Z,25.08
2023-04-15T20:22:43.445Z,25.25
2023-04-15T20:27:46.889Z,16.20
2023-04-15T20:32:51.797Z,12.55
2023-04-15T20:37:55.623Z,41.72
2023-04-15T20:42:58.823Z,36.85
2023-04-15T20:48:03.697Z,20.48
2023-04-15T20:53:07.185Z,13.57
2023-04-15T20:58:10.548Z,12.95
2023-04-15T21:03:15.663Z,14.07
2023-04-15T21:08:19.112Z,15.60
2023-04-15T21:13:22.353Z,16.15
2023-04-15T21:18:27.078Z,14.23
2023-04-15T21:23:31.426Z,15.77
2023-04-15T21:28:34.902Z,17.80
2023-04-15T21:33:39.633Z,16.02
2023-04-15T21:38:43.072Z,14.82
2023-04-15T21:43:46.373Z,19.88
2023-04-15T21:48:51.104Z,23.00
2023-04-15T21:53:54.263Z,19.85
2023-04-15T21:58:58.784Z,19.83
2023-04-15T22:04:03.658Z,16.77
2023-04-15T22:09:07.046Z,16.65
2023-04-15T22:14:10.624Z,19.63
2023-04-15T22:19:15.150Z,13.52
2023-04-15T22:24:39.275Z,18.60
2023-04-15T22:29:42.010Z,16.73
2023-04-15T22:34:46.782Z,18.17
2023-04-15T22:39:50.183Z,17.02
2023-04-15T22:44:53.743Z,15.43
2023-04-15T22:49:58.499Z,18.33
2023-04-15T22:55:02.069Z,19.52
2023-04-15T23:00:08.857Z,18.75
2023-04-15T23:05:13.661Z,19.17
2023-04-15T23:10:17.288Z,14.07
2023-04-15T23:15:20.624Z,15.75
2023-04-15T23:20:25.619Z,15.77
2023-04-15T23:25:29.125Z,16.90
2023-04-15T23:30:32.717Z,18.80
2023-04-15T23:35:37.963Z,12.52
2023-04-15T23:40:41.192Z,14.13
2023-04-15T23:45:44.461Z,15.10
2023-04-15T23:50:49.239Z,10.80
2023-04-15T23:55:52.646Z,16.88
